Time;durP1;ratioP1;P1;durP2;ratioP2;P2;SDS_P1;SDS_P2;PMS_P1;PMS_P2;Temp;Humidity;BMP_temperature;BMP_pressure;BME280_temperature;BME280_humidity;BME280_pressure;Samples;Min_cycle;Max_cycle;Signal;HPM_P1;HPM_P2
2023/04/30 00:02:24;;;;;;;9.03;4.20;;;5.10;1.00;;;;;;5072244;28;20197;-68
2023/04/30 00:04:49;;;;;;;9.63;3.70;;;5.10;1.00;;;;;;5073925;28;20400;-67
2023/04/30 00:07:15;;;;;;;13.80;4.97;;;5.10;1.00;;;;;;5073397;28;20642;-67
2023/04/30 00:09:41;;;;;;;6.50;4.27;;;5.00;1.00;;;;;;5073724;28;20174;-68
2023/04/30 00:12:06;;;;;;;6.73;3.80;;;5.00;1.00;;;;;;5071818;28;20325;-68
2023/04/30 00:14:32;;;;;;;4.33;3.93;;;5.10;1.00;;;;;;5072925;28;20201;-69
2023/04/30 00:16:57;;;;;;;4.30;3.90;;;5.00;1.00;;;;;;5073707;28;20210;-68
2023/04/30 00:19:23;;;;;;;9.20;4.00;;;4.90;1.00;;;;;;5073640;28;20257;-67
2023/04/30 00:21:49;;;;;;;10.80;4.40;;;4.90;1.00;;;;;;5071258;28;20179;-68
2023/04/30 00:24:15;;;;;;;6.97;4.60;;;4.90;1.00;;;;;;5073570;28;20166;-67
2023/04/30 00:26:42;;;;;;;4.93;4.27;;;4.90;1.00;;;;;;5081194;28;20180;-68
2023/04/30 00:29:09;;;;;;;5.63;5.13;;;4.90;1.00;;;;;;5093497;28;20522;-65
2023/04/30 00:31:34;;;;;;;5.13;4.17;;;4.90;1.00;;;;;;5083553;28;20513;-68
2023/04/30 00:34:00;;;;;;;4.80;4.17;;;4.80;1.00;;;;;;5072507;28;20975;-68
2023/04/30 00:36:25;;;;;;;8.97;5.57;;;4.80;1.00;;;;;;5078861;28;20197;-68
2023/04/30 00:38:51;;;;;;;10.40;5.87;;;4.80;1.00;;;;;;5075335;28;20174;-64
2023/04/30 00:41:18;;;;;;;10.70;4.90;;;4.80;1.00;;;;;;5070084;28;20555;-65
2023/04/30 00:43:45;;;;;;;13.80;5.80;;;4.80;1.00;;;;;;5073651;28;20281;-65
2023/04/30 00:46:11;;;;;;;6.27;5.67;;;4.80;1.00;;;;;;5072540;28;20485;-65
2023/04/30 00:48:37;;;;;;;6.40;4.83;;;4.80;1.00;;;;;;5073399;28;20408;-67
2023/04/30 00:51:03;;;;;;;8.00;5.43;;;4.70;1.00;;;;;;5071870;28;20186;-65
2023/04/30 00:53:29;;;;;;;12.77;5.63;;;4.70;1.00;;;;;;5055218;28;20741;-65
2023/04/30 00:55:56;;;;;;;5.67;4.40;;;4.60;1.00;;;;;;5072236;28;20439;-65
2023/04/30 00:58:22;;;;;;;8.47;6.00;;;4.60;1.00;;;;;;5072745;28;20423;-65
2023/04/30 01:00:48;;;;;;;10.17;4.70;;;4.60;1.00;;;;;;5072382;28;20387;-65
2023/04/30 01:03:14;;;;;;;7.30;5.20;;;4.60;1.00;;;;;;5073019;28;20430;-65
2023/04/30 01:05:40;;;;;;;8.67;5.17;;;4.60;1.00;;;;;;5093253;28;20419;-67
2023/04/30 01:08:07;;;;;;;13.40;5.60;;;4.60;1.00;;;;;;5076524;28;20805;-67
2023/04/30 01:10:59;;;;;;;14.97;6.00;;;4.50;1.00;;;;;;5071003;28;20205;-67
2023/04/30 01:13:31;;;;;;;7.23;5.10;;;4.50;1.00;;;;;;5090300;28;20474;-67
2023/04/30 01:16:13;;;;;;;8.03;5.20;;;4.40;1.00;;;;;;5092775;28;20412;-67
2023/04/30 01:18:48;;;;;;;8.33;5.10;;;4.30;1.00;;;;;;5068771;28;20499;-66
2023/04/30 01:21:18;;;;;;;8.10;5.13;;;4.30;1.00;;;;;;5089689;28;20423;-67
2023/04/30 01:24:19;;;;;;;9.87;6.37;;;4.30;1.00;;;;;;5092500;28;20804;-67
2023/04/30 01:27:17;;;;;;;9.53;5.30;;;4.30;1.00;;;;;;5086221;28;20989;-67
2023/04/30 01:29:43;;;;;;;13.50;5.50;;;4.20;1.00;;;;;;5073020;28;20921;-65
2023/04/30 01:32:10;;;;;;;5.60;4.97;;;4.30;1.00;;;;;;5070413;28;20539;-65
2023/04/30 01:34:36;;;;;;;6.97;5.30;;;4.30;1.00;;;;;;5055478;28;20698;-67
2023/04/30 01:37:26;;;;;;;9.30;5.73;;;4.30;1.00;;;;;;5072594;28;20501;-65
2023/04/30 01:40:04;;;;;;;10.53;5.57;;;4.40;1.00;;;;;;5072924;28;20952;-67
2023/04/30 01:42:38;;;;;;;10.10;4.90;;;4.30;1.00;;;;;;5071927;28;20456;-65
2023/04/30 01:45:16;;;;;;;7.33;5.10;;;4.30;1.00;;;;;;5074117;28;20411;-65
2023/04/30 01:47:55;;;;;;;8.20;5.10;;;4.30;1.00;;;;;;5072709;28;20410;-65
2023/04/30 01:50:38;;;;;;;12.17;5.17;;;4.40;1.00;;;;;;5075047;28;20404;-66
2023/04/30 01:53:08;;;;;;;8.77;5.97;;;4.40;1.00;;;;;;5076003;28;20457;-65
2023/04/30 01:55:40;;;;;;;10.13;5.20;;;4.30;1.00;;;;;;5076406;28;20418;-67
2023/04/30 01:58:09;;;;;;;5.87;4.53;;;4.30;1.00;;;;;;5071016;28;20519;-66
2023/04/30 02:00:35;;;;;;;9.87;5.30;;;4.30;1.00;;;;;;5075041;28;20936;-65
2023/04/30 02:03:01;;;;;;;7.57;4.87;;;4.30;1.00;;;;;;5075134;28;20451;-65
2023/04/30 02:05:27;;;;;;;6.33;4.40;;;4.40;1.00;;;;;;5075961;28;20634;-64
2023/04/30 02:07:53;;;;;;;15.77;4.53;;;4.50;1.00;;;;;;5075309;28;20190;-65
2023/04/30 02:10:21;;;;;;;7.10;5.03;;;4.40;1.00;;;;;;5091385;28;20463;-68
2023/04/30 02:12:47;;;;;;;10.43;5.77;;;4.50;1.00;;;;;;5075925;28;20194;-67
2023/04/30 02:15:14;;;;;;;12.83;4.93;;;4.40;1.00;;;;;;5057610;28;20750;-65
2023/04/30 02:17:39;;;;;;;10.93;4.57;;;4.40;1.00;;;;;;5066216;28;20512;-65
2023/04/30 02:20:06;;;;;;;9.77;4.33;;;4.40;1.00;;;;;;5057090;28;20423;-65
2023/04/30 02:22:32;;;;;;;8.47;5.50;;;4.50;1.00;;;;;;5080949;28;20826;-68
2023/04/30 02:25:01;;;;;;;9.73;5.20;;;4.50;1.00;;;;;;5075808;28;20447;-67
2023/04/30 02:27:29;;;;;;;11.93;4.57;;;4.60;1.00;;;;;;5087368;28;20420;-67
2023/04/30 02:29:55;;;;;;;11.10;5.30;;;4.60;1.00;;;;;;5074250;28;20428;-68
2023/04/30 02:32:21;;;;;;;6.33;5.10;;;4.60;1.00;;;;;;5074894;28;20427;-68
2023/04/30 02:34:46;;;;;;;12.93;5.87;;;4.60;1.00;;;;;;5092053;28;20461;-68
2023/04/30 02:37:12;;;;;;;7.00;4.70;;;4.60;1.00;;;;;;5077578;28;20211;-67
2023/04/30 02:39:38;;;;;;;5.53;5.03;;;4.60;1.00;;;;;;5080084;28;20595;-68
2023/04/30 02:42:05;;;;;;;7.17;5.27;;;4.60;1.00;;;;;;5074393;28;20189;-68
2023/04/30 02:44:31;;;;;;;11.73;5.70;;;4.60;1.00;;;;;;5073956;28;20209;-68
2023/04/30 02:46:57;;;;;;;9.40;5.67;;;4.60;1.00;;;;;;5074837;28;20818;-68
2023/04/30 02:49:22;;;;;;;17.50;5.23;;;4.60;1.00;;;;;;5074379;28;20560;-67
2023/04/30 02:51:48;;;;;;;5.93;4.50;;;4.60;1.00;;;;;;5056720;28;20179;-67
2023/04/30 02:54:14;;;;;;;11.07;6.00;;;4.60;1.00;;;;;;5075071;28;20211;-67
2023/04/30 02:56:40;;;;;;;5.27;4.67;;;4.70;1.00;;;;;;5074372;28;20176;-68
2023/04/30 02:59:07;;;;;;;6.70;4.13;;;4.60;1.00;;;;;;5075017;28;20186;-67
2023/04/30 03:01:32;;;;;;;14.43;4.97;;;4.60;1.00;;;;;;5094229;28;20439;-68
2023/04/30 03:03:58;;;;;;;6.10;5.30;;;4.60;1.00;;;;;;5086465;28;20466;-68
2023/04/30 03:06:24;;;;;;;5.60;4.20;;;4.50;1.00;;;;;;5075079;28;20227;-65
2023/04/30 03:08:49;;;;;;;10.80;5.50;;;4.50;1.00;;;;;;5074747;28;20185;-65
2023/04/30 03:11:15;;;;;;;9.93;5.33;;;4.40;1.00;;;;;;5072841;28;20227;-66
2023/04/30 03:13:42;;;;;;;6.27;4.47;;;4.40;1.00;;;;;;5075120;28;20232;-65
2023/04/30 03:16:07;;;;;;;5.07;4.50;;;4.40;1.00;;;;;;5057399;28;20683;-67
2023/04/30 03:18:33;;;;;;;8.80;4.87;;;4.30;1.00;;;;;;5056455;28;20444;-65
2023/04/30 03:20:59;;;;;;;4.93;4.50;;;4.30;1.00;;;;;;5093967;28;20621;-65
2023/04/30 03:23:27;;;;;;;13.87;5.07;;;4.30;1.00;;;;;;5093626;28;20234;-65
2023/04/30 03:25:52;;;;;;;4.40;4.03;;;4.30;1.00;;;;;;5072523;28;20176;-65
2023/04/30 03:28:18;;;;;;;8.23;5.67;;;4.20;1.00;;;;;;5075929;28;20418;-65
2023/04/30 03:30:44;;;;;;;5.30;4.80;;;4.20;1.00;;;;;;5073717;28;20179;-65
2023/04/30 03:33:09;;;;;;;5.40;4.90;;;4.20;1.00;;;;;;5074321;28;20247;-65
2023/04/30 03:35:35;;;;;;;9.93;4.97;;;4.20;1.00;;;;;;5091693;28;20246;-65
2023/04/30 03:38:01;;;;;;;7.23;4.63;;;4.20;1.00;;;;;;5094626;28;20245;-65
2023/04/30 03:40:27;;;;;;;10.97;5.30;;;4.20;1.00;;;;;;5076333;28;20273;-65
2023/04/30 03:42:52;;;;;;;7.33;4.23;;;4.10;1.00;;;;;;5053605;28;20464;-65
2023/04/30 03:45:18;;;;;;;14.30;5.07;;;4.10;1.00;;;;;;5068059;28;20204;-65
2023/04/30 03:47:44;;;;;;;11.33;5.60;;;4.10;1.00;;;;;;5074201;28;20183;-65
2023/04/30 03:50:10;;;;;;;11.93;5.70;;;4.10;1.00;;;;;;5077068;28;20184;-65
2023/04/30 03:52:36;;;;;;;6.63;5.20;;;4.00;1.00;;;;;;5074006;28;20221;-65
2023/04/30 03:55:07;;;;;;;11.53;5.10;;;4.00;1.00;;;;;;5076710;28;20193;-65
2023/04/30 03:57:33;;;;;;;9.30;4.57;;;4.00;1.00;;;;;;5056267;28;20421;-65
2023/04/30 03:59:59;;;;;;;11.30;5.27;;;4.00;1.00;;;;;;5073464;28;20431;-65
2023/04/30 04:02:25;;;;;;;6.40;4.90;;;4.00;1.00;;;;;;5073770;28;20192;-65
2023/04/30 04:04:51;;;;;;;8.90;6.60;;;4.00;1.00;;;;;;5073431;28;20170;-65
2023/04/30 04:07:16;;;;;;;11.17;5.60;;;4.00;1.00;;;;;;5073785;28;20870;-65
2023/04/30 04:09:42;;;;;;;9.07;4.60;;;4.10;1.00;;;;;;5072769;28;20448;-65
2023/04/30 04:12:11;;;;;;;8.47;4.83;;;4.10;1.00;;;;;;5073044;28;20989;-65
2023/04/30 04:14:37;;;;;;;7.40;5.73;;;4.10;1.00;;;;;;5073747;28;20194;-64
2023/04/30 04:17:04;;;;;;;4.83;4.30;;;4.10;1.00;;;;;;5073683;28;20431;-65
2023/04/30 04:19:30;;;;;;;6.03;4.73;;;4.10;1.00;;;;;;5083327;28;20518;-64
2023/04/30 04:21:56;;;;;;;6.33;4.13;;;4.10;1.00;;;;;;5087917;28;20398;-65
2023/04/30 04:24:24;;;;;;;9.87;6.23;;;4.20;1.00;;;;;;5071666;28;20499;-65
2023/04/30 04:26:50;;;;;;;7.07;5.20;;;4.20;1.00;;;;;;5093772;28;20408;-65
2023/04/30 04:29:16;;;;;;;13.70;5.87;;;4.20;1.00;;;;;;5085541;28;20473;-65
2023/04/30 04:31:42;;;;;;;9.93;5.70;;;4.20;1.00;;;;;;5072682;28;20497;-65
2023/04/30 04:34:08;;;;;;;10.83;5.00;;;4.20;1.00;;;;;;5073343;28;20189;-65
2023/04/30 04:36:34;;;;;;;11.30;4.70;;;4.20;1.00;;;;;;5072700;28;20405;-64
2023/04/30 04:39:03;;;;;;;8.33;5.27;;;4.30;1.00;;;;;;5073917;28;20176;-64
2023/04/30 04:41:31;;;;;;;13.73;6.53;;;4.30;1.00;;;;;;5072174;28;20413;-65
2023/04/30 04:43:57;;;;;;;10.63;7.33;;;4.40;1.00;;;;;;5074055;28;20934;-65
2023/04/30 04:46:24;;;;;;;4.87;4.40;;;4.40;1.00;;;;;;5073244;28;20491;-65
2023/04/30 04:48:50;;;;;;;12.83;4.87;;;4.50;1.00;;;;;;5073287;28;20422;-65
2023/04/30 04:51:15;;;;;;;12.77;5.70;;;4.60;1.00;;;;;;5078648;28;20493;-65
2023/04/30 04:53:41;;;;;;;6.30;4.60;;;4.60;1.00;;;;;;5072955;28;20459;-65
2023/04/30 04:56:07;;;;;;;8.00;5.10;;;4.60;1.00;;;;;;5072678;28;20951;-65
2023/04/30 04:58:33;;;;;;;10.23;5.97;;;4.70;1.00;;;;;;5084658;28;20423;-67
2023/04/30 05:01:00;;;;;;;25.97;5.80;;;4.70;1.00;;;;;;5092726;28;20398;-67
2023/04/30 05:03:27;;;;;;;8.63;4.37;;;4.80;1.00;;;;;;5082605;28;20445;-68
2023/04/30 05:05:52;;;;;;;6.07;4.70;;;4.70;1.00;;;;;;5072138;28;20438;-66
2023/04/30 05:08:18;;;;;;;10.13;4.67;;;4.80;1.00;;;;;;5075657;28;20698;-68
2023/04/30 05:10:46;;;;;;;8.13;5.80;;;4.90;1.00;;;;;;5072180;28;20199;-67
2023/04/30 05:13:12;;;;;;;9.37;5.17;;;4.90;1.00;;;;;;5083816;28;20581;-67
2023/04/30 05:15:37;;;;;;;10.83;5.53;;;4.90;1.00;;;;;;5093186;28;20422;-67
2023/04/30 05:18:03;;;;;;;7.60;4.97;;;5.00;1.00;;;;;;5080667;28;20278;-67
2023/04/30 05:20:29;;;;;;;6.60;5.30;;;5.10;1.00;;;;;;5055091;28;20178;-67
2023/04/30 05:22:54;;;;;;;6.27;4.50;;;5.20;1.00;;;;;;5071293;28;20201;-68
2023/04/30 05:25:20;;;;;;;7.80;4.60;;;5.20;1.00;;;;;;5076696;28;20255;-68
2023/04/30 05:27:46;;;;;;;9.23;5.30;;;5.20;1.00;;;;;;5085894;28;20173;-68
2023/04/30 05:30:12;;;;;;;5.83;5.20;;;5.30;1.00;;;;;;5096421;28;20170;-68
2023/04/30 05:32:37;;;;;;;6.53;4.60;;;5.30;1.00;;;;;;5069728;28;20205;-67
2023/04/30 05:35:03;;;;;;;7.00;5.47;;;5.40;1.00;;;;;;5059384;28;20177;-68
2023/04/30 05:37:29;;;;;;;10.47;5.97;;;5.40;1.00;;;;;;5076195;28;20185;-67
2023/04/30 05:39:55;;;;;;;8.73;4.33;;;5.40;1.00;;;;;;5096636;28;20722;-68
2023/04/30 05:42:20;;;;;;;6.47;4.83;;;5.50;1.00;;;;;;5092001;28;20190;-67
2023/04/30 05:44:48;;;;;;;8.43;5.03;;;5.60;1.00;;;;;;5076751;28;20177;-67
2023/04/30 05:47:13;;;;;;;4.00;3.70;;;5.70;1.00;;;;;;5075544;28;20439;-68
2023/04/30 05:49:39;;;;;;;6.20;4.53;;;5.80;1.00;;;;;;5076219;28;20427;-68
2023/04/30 05:52:05;;;;;;;10.97;4.57;;;5.80;1.00;;;;;;5078485;28;20185;-68
2023/04/30 05:54:30;;;;;;;3.60;3.30;;;5.90;1.00;;;;;;5057551;28;20201;-68
2023/04/30 05:56:56;;;;;;;5.13;3.80;;;5.90;1.00;;;;;;5059403;28;20257;-68
2023/04/30 05:59:22;;;;;;;5.73;3.53;;;6.10;1.00;;;;;;5077050;28;20168;-68
2023/04/30 06:01:48;;;;;;;7.50;4.23;;;6.20;1.00;;;;;;5076533;28;20492;-68
2023/04/30 06:04:13;;;;;;;9.90;3.80;;;6.30;1.00;;;;;;5076446;28;20486;-68
2023/04/30 06:06:41;;;;;;;9.73;3.80;;;6.40;1.00;;;;;;5074440;28;20178;-68
2023/04/30 06:09:10;;;;;;;6.33;4.50;;;6.40;1.00;;;;;;5068809;28;21600;-67
2023/04/30 06:11:36;;;;;;;5.10;3.67;;;6.50;1.00;;;;;;5078227;28;20558;-67
2023/04/30 06:14:03;;;;;;;6.10;4.00;;;6.50;1.00;;;;;;5063190;28;20543;-67
2023/04/30 06:16:31;;;;;;;5.70;4.43;;;6.60;1.00;;;;;;5076760;28;20170;-67
2023/04/30 06:18:57;;;;;;;7.20;3.43;;;6.60;1.00;;;;;;5075448;28;20412;-67
2023/04/30 06:21:25;;;;;;;6.37;3.67;;;6.70;1.00;;;;;;5074425;28;20792;-67
2023/04/30 06:23:51;;;;;;;8.90;4.07;;;6.70;1.00;;;;;;5054933;28;20198;-67
2023/04/30 06:26:18;;;;;;;8.13;3.10;;;6.70;1.00;;;;;;5075882;28;20429;-68
2023/04/30 06:28:45;;;;;;;3.70;3.50;;;6.80;1.00;;;;;;5082371;28;20516;-68
2023/04/30 06:31:10;;;;;;;4.33;3.60;;;6.90;1.00;;;;;;5073384;28;20408;-67
2023/04/30 06:33:36;;;;;;;3.87;3.47;;;6.90;1.00;;;;;;5087638;28;20463;-67
2023/04/30 06:36:02;;;;;;;4.30;3.90;;;6.90;1.00;;;;;;5075288;28;20249;-68
2023/04/30 06:38:28;;;;;;;3.67;3.37;;;6.90;1.00;;;;;;5075717;28;20527;-67
2023/04/30 06:40:53;;;;;;;3.73;3.50;;;7.00;1.00;;;;;;5088553;28;20523;-68
2023/04/30 06:43:20;;;;;;;5.87;3.53;;;7.10;1.00;;;;;;5080233;28;20530;-67
2023/04/30 06:45:45;;;;;;;10.47;3.70;;;7.10;1.00;;;;;;5087458;28;20182;-68
2023/04/30 06:48:11;;;;;;;6.00;3.73;;;7.20;1.00;;;;;;5094905;28;20499;-68
2023/04/30 06:50:43;;;;;;;5.17;3.87;;;7.30;1.00;;;;;;5087161;28;20184;-68
2023/04/30 06:53:10;;;;;;;10.40;3.87;;;7.30;1.00;;;;;;5095325;28;20228;-67
2023/04/30 06:55:36;;;;;;;5.97;3.57;;;7.30;1.00;;;;;;5085129;28;20395;-67
2023/04/30 06:58:01;;;;;;;6.00;3.93;;;7.40;1.00;;;;;;5075116;28;20446;-68
2023/04/30 07:00:27;;;;;;;5.57;3.27;;;7.40;1.00;;;;;;5081929;28;20161;-68
2023/04/30 07:02:53;;;;;;;3.37;3.10;;;7.50;1.00;;;;;;5095503;28;20192;-68
2023/04/30 07:05:18;;;;;;;7.20;3.73;;;7.60;1.00;;;;;;5084801;28;20181;-68
2023/04/30 07:07:45;;;;;;;6.93;3.63;;;7.60;1.00;;;;;;5094588;28;20177;-68
2023/04/30 07:10:11;;;;;;;4.23;3.83;;;7.60;1.00;;;;;;5088488;28;20194;-68
2023/04/30 07:12:37;;;;;;;10.67;3.53;;;7.80;1.00;;;;;;5057490;28;20440;-67
2023/04/30 07:15:03;;;;;;;5.57;3.30;;;7.80;1.00;;;;;;5057126;28;20425;-68
2023/04/30 07:17:28;;;;;;;4.33;3.47;;;7.80;1.00;;;;;;5074626;28;20178;-68
2023/04/30 07:19:54;;;;;;;5.63;3.33;;;8.00;1.00;;;;;;5074898;28;20400;-68
2023/04/30 07:22:20;;;;;;;3.47;3.17;;;8.00;1.00;;;;;;5073262;28;20227;-68
2023/04/30 07:24:45;;;;;;;3.30;3.10;;;8.20;1.00;;;;;;5073873;28;20187;-68
2023/04/30 07:27:11;;;;;;;7.53;3.70;;;8.30;1.00;;;;;;5074856;28;20175;-68
2023/04/30 07:29:37;;;;;;;3.10;2.70;;;8.30;99.90;;;;;;5074690;28;20535;-68
2023/04/30 07:32:03;;;;;;;7.63;3.93;;;8.30;99.90;;;;;;5073882;28;20218;-69
2023/04/30 07:34:28;;;;;;;6.93;3.57;;;8.40;99.90;;;;;;5074103;28;20223;-69
2023/04/30 07:36:54;;;;;;;6.20;2.80;;;8.50;99.90;;;;;;5074454;28;20186;-68
2023/04/30 07:39:19;;;;;;;3.17;2.53;;;8.70;99.90;;;;;;5073787;28;20185;-70
2023/04/30 07:41:45;;;;;;;5.60;2.80;;;8.90;99.90;;;;;;5073135;28;20176;-69
2023/04/30 07:44:11;;;;;;;5.50;3.50;;;8.90;99.90;;;;;;5073666;28;20213;-68
2023/04/30 07:46:37;;;;;;;3.63;2.60;;;8.90;99.90;;;;;;5057041;28;20267;-69
2023/04/30 07:49:03;;;;;;;8.80;3.93;;;8.90;99.90;;;;;;5073881;28;20220;-69
2023/04/30 07:51:28;;;;;;;6.07;3.17;;;8.90;99.90;;;;;;5073165;28;20175;-68
2023/04/30 07:53:54;;;;;;;9.43;3.77;;;8.80;99.90;;;;;;5073179;28;20490;-68
2023/04/30 07:56:20;;;;;;;3.50;3.20;;;8.90;99.90;;;;;;5073946;28;20542;-70
2023/04/30 07:58:46;;;;;;;4.63;4.20;;;9.00;99.90;;;;;;5073401;28;20618;-69
2023/04/30 08:01:12;;;;;;;5.77;5.17;;;9.20;99.90;;;;;;5073029;28;20609;-69
2023/04/30 08:03:37;;;;;;;13.83;4.53;;;9.20;99.90;;;;;;5073816;28;20440;-68
2023/04/30 08:06:05;;;;;;;4.73;3.80;;;9.20;99.90;;;;;;5073276;28;20257;-70
2023/04/30 08:08:31;;;;;;;7.60;3.40;;;9.40;99.90;;;;;;5073884;28;20173;-69
2023/04/30 08:10:56;;;;;;;4.50;4.10;;;9.50;99.90;;;;;;5072991;28;20407;-68
2023/04/30 08:13:22;;;;;;;4.87;3.30;;;9.60;99.90;;;;;;5073586;28;20207;-69
2023/04/30 08:15:48;;;;;;;9.43;4.97;;;9.50;99.90;;;;;;5073633;28;20180;-68
2023/04/30 08:18:13;;;;;;;5.30;3.67;;;9.50;99.90;;;;;;5073288;28;20228;-69
2023/04/30 08:20:39;;;;;;;3.87;3.17;;;9.50;99.90;;;;;;5072255;28;20240;-68
2023/04/30 08:23:05;;;;;;;7.53;3.53;;;9.40;99.90;;;;;;5073671;28;20228;-69
2023/04/30 08:25:31;;;;;;;3.00;2.80;;;9.40;99.90;;;;;;5056708;28;20182;-70
2023/04/30 08:27:57;;;;;;;5.73;3.20;;;9.60;99.90;;;;;;5073343;28;20166;-69
2023/04/30 08:30:23;;;;;;;9.07;3.60;;;9.90;99.90;;;;;;5054613;28;20409;-69
2023/04/30 08:32:49;;;;;;;8.47;3.27;;;10.20;99.90;;;;;;5073339;28;20198;-69
2023/04/30 08:35:15;;;;;;;10.93;3.27;;;10.40;99.90;;;;;;5071927;28;20436;-70
2023/04/30 08:37:41;;;;;;;5.00;3.80;;;10.40;99.90;;;;;;5073521;28;20386;-69
2023/04/30 08:40:08;;;;;;;5.07;3.43;;;10.30;99.90;;;;;;5072622;28;20493;-69
2023/04/30 08:42:36;;;;;;;3.23;3.03;;;10.40;99.90;;;;;;5073327;28;20420;-70
2023/04/30 08:45:03;;;;;;;8.60;3.60;;;10.40;99.90;;;;;;5073337;28;20383;-69
2023/04/30 08:47:30;;;;;;;4.50;4.10;;;10.50;99.90;;;;;;5073439;28;20379;-69
2023/04/30 08:49:55;;;;;;;3.30;2.97;;;10.90;99.90;;;;;;5071994;28;20876;-68
2023/04/30 08:52:21;;;;;;;4.03;3.03;;;11.10;99.90;;;;;;5054496;28;20447;-69
2023/04/30 08:54:49;;;;;;;6.07;2.83;;;11.20;99.90;;;;;;5074045;28;20213;-68
2023/04/30 08:57:14;;;;;;;3.93;3.63;;;11.50;99.90;;;;;;5077535;28;20405;-69
2023/04/30 08:59:40;;;;;;;6.10;2.60;;;11.50;99.90;;;;;;5075912;28;20408;-70
2023/04/30 09:02:08;;;;;;;7.13;3.07;;;11.40;99.90;;;;;;5075638;28;20194;-69
2023/04/30 09:04:34;;;;;;;3.87;3.17;;;11.20;99.90;;;;;;5077370;28;20162;-70
2023/04/30 09:07:02;;;;;;;4.83;3.57;;;11.40;99.90;;;;;;5077323;28;20432;-69
2023/04/30 09:09:29;;;;;;;3.00;2.70;;;11.60;99.90;;;;;;5077209;28;20174;-69
2023/04/30 09:12:14;;;;;;;12.03;3.77;;;11.80;99.90;;;;;;5076474;28;20375;-69
2023/04/30 09:14:41;;;;;;;6.13;3.50;;;12.20;99.90;;;;;;5076008;28;20785;-69
2023/04/30 09:17:10;;;;;;;8.73;4.00;;;12.30;99.90;;;;;;5059945;28;20766;-70
2023/04/30 09:19:36;;;;;;;4.97;3.20;;;12.50;99.90;;;;;;5077173;28;20908;-71
2023/04/30 09:22:23;;;;;;;4.03;3.23;;;12.70;99.90;;;;;;5075999;28;20399;-70
2023/04/30 09:24:50;;;;;;;3.90;3.00;;;13.00;99.90;;;;;;5076848;28;20505;-71
2023/04/30 09:27:18;;;;;;;3.10;2.60;;;13.10;99.90;;;;;;5076788;28;20474;-71
2023/04/30 09:29:45;;;;;;;5.13;3.17;;;13.10;99.90;;;;;;5076006;28;20414;-71
2023/04/30 09:32:12;;;;;;;4.23;2.93;;;13.00;99.90;;;;;;5074298;28;20447;-71
2023/04/30 09:34:38;;;;;;;4.43;3.00;;;13.20;99.90;;;;;;5072348;28;20456;-71
2023/04/30 09:37:04;;;;;;;5.60;3.87;;;13.20;99.90;;;;;;5072500;28;20395;-71
2023/04/30 09:42:36;;;;;;;5.60;3.27;;;13.70;99.90;;;;;;5061391;28;20475;-71
2023/04/30 09:45:12;;;;;;;9.80;2.70;;;14.40;99.90;;;;;;5056621;28;20416;-71
2023/04/30 09:51:02;;;;;;;7.77;3.63;;;14.20;99.90;;;;;;5073988;28;20542;-71
2023/04/30 09:53:45;;;;;;;4.10;2.80;;;13.60;99.90;;;;;;5055514;28;20475;-71
2023/04/30 09:56:23;;;;;;;;;;;;;;;;;;;;;
2023/04/30 09:59:08;;;;;;;5.57;3.00;;;14.20;99.90;;;;;;5075691;28;20412;-70
2023/04/30 10:01:36;;;;;;;4.80;2.60;;;14.90;99.90;;;;;;5065359;28;20432;-71
2023/04/30 10:04:03;;;;;;;2.70;2.20;;;15.10;99.90;;;;;;5075668;28;20896;-71
2023/04/30 10:06:34;;;;;;;6.23;2.80;;;15.50;99.90;;;;;;5077939;28;20436;-71
2023/04/30 10:09:12;;;;;;;;;;;;;;;;;;;;;
2023/04/30 10:11:41;;;;;;;4.53;2.90;;;14.80;99.90;;;;;;5065962;28;20436;-71
2023/04/30 10:14:11;;;;;;;8.20;3.87;;;14.20;99.90;;;;;;5074875;28;20455;-71
2023/04/30 10:17:10;;;;;;;5.27;3.43;;;13.60;99.90;;;;;;5074838;28;20482;-71
2023/04/30 10:19:40;;;;;;;5.87;3.50;;;13.80;99.90;;;;;;5058045;28;20982;-71
2023/04/30 10:22:07;;;;;;;4.37;2.70;;;14.30;99.90;;;;;;5073498;28;20523;-71
2023/04/30 10:25:10;;;;;;;5.43;2.57;;;14.90;99.90;;;;;;5071434;28;20443;-71
2023/04/30 10:27:46;;;;;;;7.80;3.67;;;15.20;99.90;;;;;;5056175;28;20405;-71
2023/04/30 10:30:13;;;;;;;5.57;4.70;;;15.80;99.90;;;;;;5074205;28;20420;-70
2023/04/30 10:32:52;;;;;;;12.63;4.20;;;15.40;99.90;;;;;;5074676;28;20427;-70
2023/04/30 10:35:26;;;;;;;5.80;2.77;;;15.30;99.90;;;;;;5074356;28;20618;-71
2023/04/30 10:38:20;;;;;;;5.13;3.67;;;15.10;99.90;;;;;;5073109;28;20429;-71
2023/04/30 10:40:46;;;;;;;5.50;2.57;;;14.80;99.90;;;;;;5068216;28;20439;-70
2023/04/30 10:46:27;;;;;;;3.13;2.50;;;14.40;99.90;;;;;;5077589;28;20442;-70
2023/04/30 10:48:54;;;;;;;6.43;3.50;;;15.30;99.90;;;;;;5070047;28;20420;-71
2023/04/30 10:51:20;;;;;;;2.77;2.30;;;15.80;99.90;;;;;;5072785;28;20459;-71
2023/04/30 10:53:53;;;;;;;2.70;2.50;;;16.20;99.90;;;;;;5064832;28;20461;-72
2023/04/30 10:56:32;;;;;;;3.33;2.80;;;16.60;99.90;;;;;;5062233;28;20785;-71
2023/04/30 10:59:02;;;;;;;8.10;3.10;;;16.80;99.90;;;;;;5074372;28;20420;-71
2023/04/30 11:01:29;;;;;;;3.97;3.00;;;17.10;99.90;;;;;;5068332;28;20433;-71
2023/04/30 11:04:05;;;;;;;4.03;2.80;;;17.30;99.90;;;;;;5055204;28;20487;-71
2023/04/30 11:06:53;;;;;;;8.73;2.87;;;17.30;99.90;;;;;;5039274;28;20460;-71
2023/04/30 11:09:23;;;;;;;6.20;2.63;;;17.80;99.90;;;;;;5053444;28;20437;-71
2023/04/30 11:12:13;;;;;;;5.23;3.30;;;18.20;99.90;;;;;;5053933;28;20409;-72
2023/04/30 11:14:43;;;;;;;5.30;2.80;;;18.00;99.90;;;;;;5074315;28;20463;-71
2023/04/30 11:17:11;;;;;;;4.13;2.50;;;17.40;99.90;;;;;;5072908;28;20409;-71
2023/04/30 11:19:46;;;;;;;8.47;2.73;;;17.60;99.90;;;;;;5072795;28;20428;-71
2023/04/30 11:22:15;;;;;;;4.60;2.53;;;17.90;99.90;;;;;;5073223;28;20947;-71
2023/04/30 11:25:02;;;;;;;3.60;2.57;;;18.20;99.90;;;;;;5077161;28;20417;-71
2023/04/30 11:27:30;;;;;;;7.33;3.33;;;18.30;99.90;;;;;;5073930;28;20435;-72
2023/04/30 11:29:57;;;;;;;2.90;2.37;;;18.50;99.90;;;;;;5056592;28;20901;-71
2023/04/30 11:32:25;;;;;;;3.40;2.67;;;18.90;99.90;;;;;;5071982;28;20861;-72
2023/04/30 11:34:51;;;;;;;2.70;2.50;;;18.90;99.90;;;;;;5067287;28;20967;-72
2023/04/30 11:37:28;;;;;;;2.60;2.40;;;19.20;99.90;;;;;;5073389;28;20408;-72
2023/04/30 11:39:55;;;;;;;6.63;2.60;;;19.30;99.90;;;;;;5056158;28;20960;-71
2023/04/30 11:42:21;;;;;;;3.53;2.87;;;19.20;99.90;;;;;;5072939;28;20460;-72
2023/04/30 11:44:47;;;;;;;3.70;2.47;;;19.30;99.90;;;;;;5074175;28;20470;-72
2023/04/30 11:47:14;;;;;;;2.50;2.10;;;19.50;99.90;;;;;;5072403;28;20182;-72
2023/04/30 11:49:40;;;;;;;3.63;2.53;;;19.90;99.90;;;;;;5056222;28;21270;-71
2023/04/30 11:52:08;;;;;;;3.60;2.30;;;20.10;99.90;;;;;;5073328;28;20478;-71
2023/04/30 11:54:36;;;;;;;3.07;2.60;;;20.10;99.90;;;;;;5073282;28;20470;-71
2023/04/30 11:57:03;;;;;;;4.43;3.10;;;20.70;99.90;;;;;;5074379;28;20487;-71
2023/04/30 11:59:30;;;;;;;2.17;2.07;;;20.40;99.90;;;;;;5074693;28;20428;-71
2023/04/30 12:01:57;;;;;;;2.70;2.50;;;20.40;99.90;;;;;;5072470;28;20460;-72
2023/04/30 12:04:23;;;;;;;2.23;2.03;;;20.60;99.90;;;;;;5067231;28;20914;-71
2023/04/30 12:06:49;;;;;;;3.67;2.50;;;20.70;99.90;;;;;;5059678;28;20440;-72
2023/04/30 12:09:14;;;;;;;4.57;2.30;;;20.50;99.90;;;;;;5069190;28;20495;-72
2023/04/30 12:11:40;;;;;;;2.80;1.83;;;20.70;99.90;;;;;;5052780;28;20409;-72
2023/04/30 12:14:11;;;;;;;7.50;2.97;;;20.90;99.90;;;;;;5053968;28;20726;-72
2023/04/30 12:16:48;;;;;;;3.63;2.43;;;21.00;99.90;;;;;;5051746;28;20675;-72
2023/04/30 12:19:16;;;;;;;3.23;1.90;;;21.50;99.90;;;;;;5054487;28;20428;-72
2023/04/30 12:21:45;;;;;;;2.50;2.30;;;21.20;99.90;;;;;;5052927;28;20401;-72
2023/04/30 12:24:11;;;;;;;3.90;2.10;;;21.20;99.90;;;;;;5054063;28;20440;-71
2023/04/30 12:26:38;;;;;;;3.10;2.90;;;21.10;99.90;;;;;;5054048;28;20837;-71
2023/04/30 12:29:09;;;;;;;3.90;2.60;;;21.00;99.90;;;;;;5067323;28;20516;-72
2023/04/30 12:31:36;;;;;;;6.70;2.40;;;21.20;99.90;;;;;;5071089;28;20432;-71
2023/04/30 12:34:09;;;;;;;4.47;2.60;;;20.90;99.90;;;;;;5069241;28;20448;-72
2023/04/30 12:36:35;;;;;;;3.00;2.40;;;21.00;99.90;;;;;;5069700;28;20420;-72
2023/04/30 12:39:54;;;;;;;8.40;3.00;;;20.90;99.90;;;;;;5071284;28;20463;-72
2023/04/30 12:42:20;;;;;;;3.70;2.40;;;20.80;99.90;;;;;;5029583;28;21054;-72
2023/04/30 12:44:49;;;;;;;5.40;2.90;;;20.50;99.90;;;;;;5071895;28;20527;-71
2023/04/30 12:47:15;;;;;;;3.43;3.10;;;20.30;99.90;;;;;;5070561;28;20435;-73
2023/04/30 12:49:45;;;;;;;4.30;2.93;;;20.20;99.90;;;;;;5077014;28;20432;-73
2023/04/30 12:52:12;;;;;;;5.60;2.60;;;20.20;99.90;;;;;;5072171;28;20545;-75
2023/04/30 12:54:39;;;;;;;5.13;2.73;;;19.80;99.90;;;;;;5065889;28;20465;-74
2023/04/30 12:57:09;;;;;;;5.23;3.87;;;19.90;99.90;;;;;;5053132;28;20547;-71
2023/04/30 12:59:48;;;;;;;6.37;3.97;;;19.70;99.90;;;;;;5056278;28;20501;-71
2023/04/30 13:02:22;;;;;;;3.40;3.10;;;19.20;99.90;;;;;;5073585;28;20451;-71
2023/04/30 13:05:29;;;;;;;5.40;3.70;;;19.30;99.90;;;;;;5072007;28;20435;-71
2023/04/30 13:08:02;;;;;;;3.80;3.03;;;18.90;99.90;;;;;;5071641;28;20442;-71
2023/04/30 13:10:28;;;;;;;3.77;3.30;;;18.60;99.90;;;;;;5052859;28;20420;-70
2023/04/30 13:15:39;;;;;;;7.50;3.30;;;19.00;99.90;;;;;;5072010;28;20447;-70
2023/04/30 13:18:10;;;;;;;6.10;2.73;;;19.20;99.90;;;;;;5073194;28;20407;-71
2023/04/30 13:20:37;;;;;;;3.40;2.73;;;19.40;99.90;;;;;;5054969;28;20437;-70